sensor_id;sensor_type;location;lat;lon;timestamp;P1;durP1;ratioP1;P2;durP2;ratioP2
5690;SDS011;2870;42.680;23.364;2023-08-24T00:01:13;19.67;;;14.70;;
5690;SDS011;2870;42.680;23.364;2023-08-24T00:03:41;23.73;;;14.50;;
5690;SDS011;2870;42.680;23.364;2023-08-24T00:06:09;21.27;;;14.07;;
5690;SDS011;2870;42.680;23.364;2023-08-24T00:08:36;22.87;;;15.03;;
5690;SDS011;2870;42.680;23.364;2023-08-24T00:11:03;19.50;;;13.27;;
5690;SDS011;2870;42.680;23.364;2023-08-24T00:13:30;28.60;;;13.47;;
5690;SDS011;2870;42.680;23.364;2023-08-24T00:15:58;17.93;;;12.80;;
5690;SDS011;2870;42.680;23.364;2023-08-24T00:18:25;18.97;;;14.30;;
5690;SDS011;2870;42.680;23.364;2023-08-24T00:20:52;19.27;;;13.30;;
5690;SDS011;2870;42.680;23.364;2023-08-24T00:23:19;29.33;;;14.30;;
5690;SDS011;2870;42.680;23.364;2023-08-24T00:25:46;19.23;;;13.13;;
5690;SDS011;2870;42.680;23.364;2023-08-24T00:28:12;17.87;;;13.30;;
5690;SDS011;2870;42.680;23.364;2023-08-24T00:30:39;26.20;;;14.90;;
5690;SDS011;2870;42.680;23.364;2023-08-24T00:33:07;19.17;;;13.60;;
5690;SDS011;2870;42.680;23.364;2023-08-24T00:35:34;19.77;;;14.03;;
5690;SDS011;2870;42.680;23.364;2023-08-24T00:38:01;22.30;;;15.17;;
5690;SDS011;2870;42.680;23.364;2023-08-24T00:40:27;19.77;;;13.63;;
5690;SDS011;2870;42.680;23.364;2023-08-24T00:42:54;19.27;;;13.47;;
5690;SDS011;2870;42.680;23.364;2023-08-24T00:45:21;20.93;;;14.83;;
5690;SDS011;2870;42.680;23.364;2023-08-24T00:47:48;21.90;;;14.03;;
5690;SDS011;2870;42.680;23.364;2023-08-24T00:50:17;20.77;;;14.27;;
5690;SDS011;2870;42.680;23.364;2023-08-24T00:52:44;24.80;;;15.50;;
5690;SDS011;2870;42.680;23.364;2023-08-24T00:55:13;23.13;;;16.20;;
5690;SDS011;2870;42.680;23.364;2023-08-24T00:57:40;25.23;;;17.50;;
5690;SDS011;2870;42.680;23.364;2023-08-24T01:00:08;29.13;;;18.20;;
5690;SDS011;2870;42.680;23.364;2023-08-24T01:02:36;32.60;;;18.60;;
5690;SDS011;2870;42.680;23.364;2023-08-24T01:05:03;29.53;;;17.13;;
5690;SDS011;2870;42.680;23.364;2023-08-24T01:07:33;27.13;;;18.47;;
5690;SDS011;2870;42.680;23.364;2023-08-24T01:10:02;24.53;;;17.20;;
5690;SDS011;2870;42.680;23.364;2023-08-24T01:12:31;24.13;;;17.80;;
5690;SDS011;2870;42.680;23.364;2023-08-24T01:15:07;26.50;;;17.60;;
5690;SDS011;2870;42.680;23.364;2023-08-24T01:17:40;27.87;;;18.40;;
5690;SDS011;2870;42.680;23.364;2023-08-24T01:20:09;27.10;;;18.20;;
5690;SDS011;2870;42.680;23.364;2023-08-24T01:22:44;23.50;;;17.17;;
5690;SDS011;2870;42.680;23.364;2023-08-24T01:25:18;29.27;;;17.00;;
5690;SDS011;2870;42.680;23.364;2023-08-24T01:27:52;25.67;;;18.57;;
5690;SDS011;2870;42.680;23.364;2023-08-24T01:30:20;24.43;;;17.30;;
5690;SDS011;2870;42.680;23.364;2023-08-24T01:32:47;25.13;;;17.80;;
5690;SDS011;2870;42.680;23.364;2023-08-24T01:35:14;25.50;;;17.40;;
5690;SDS011;2870;42.680;23.364;2023-08-24T01:37:41;23.77;;;16.17;;
5690;SDS011;2870;42.680;23.364;2023-08-24T01:40:10;27.63;;;15.30;;
5690;SDS011;2870;42.680;23.364;2023-08-24T01:42:43;20.97;;;15.70;;
5690;SDS011;2870;42.680;23.364;2023-08-24T01:45:22;23.63;;;15.60;;
5690;SDS011;2870;42.680;23.364;2023-08-24T01:47:51;19.13;;;14.53;;
5690;SDS011;2870;42.680;23.364;2023-08-24T01:50:20;23.57;;;15.20;;
5690;SDS011;2870;42.680;23.364;2023-08-24T01:52:47;20.57;;;14.40;;
5690;SDS011;2870;42.680;23.364;2023-08-24T01:55:14;19.50;;;14.27;;
5690;SDS011;2870;42.680;23.364;2023-08-24T01:57:43;22.93;;;15.30;;
5690;SDS011;2870;42.680;23.364;2023-08-24T02:05:20;17.50;;;13.20;;
5690;SDS011;2870;42.680;23.364;2023-08-24T02:07:47;22.43;;;14.77;;
5690;SDS011;2870;42.680;23.364;2023-08-24T02:10:13;19.90;;;13.37;;
5690;SDS011;2870;42.680;23.364;2023-08-24T02:12:41;21.70;;;13.40;;
5690;SDS011;2870;42.680;23.364;2023-08-24T02:15:08;21.13;;;14.53;;
5690;SDS011;2870;42.680;23.364;2023-08-24T02:17:35;22.43;;;14.00;;
5690;SDS011;2870;42.680;23.364;2023-08-24T02:20:02;18.60;;;13.90;;
5690;SDS011;2870;42.680;23.364;2023-08-24T02:22:32;21.33;;;15.37;;
5690;SDS011;2870;42.680;23.364;2023-08-24T02:24:58;19.57;;;14.27;;
5690;SDS011;2870;42.680;23.364;2023-08-24T02:27:26;28.10;;;14.30;;
5690;SDS011;2870;42.680;23.364;2023-08-24T02:29:53;23.83;;;13.60;;
5690;SDS011;2870;42.680;23.364;2023-08-24T02:32:19;22.87;;;14.43;;
5690;SDS011;2870;42.680;23.364;2023-08-24T02:34:46;19.17;;;14.00;;
5690;SDS011;2870;42.680;23.364;2023-08-24T02:37:13;19.27;;;14.67;;
5690;SDS011;2870;42.680;23.364;2023-08-24T02:39:41;18.80;;;14.37;;
5690;SDS011;2870;42.680;23.364;2023-08-24T02:42:08;25.40;;;14.60;;
5690;SDS011;2870;42.680;23.364;2023-08-24T02:44:35;18.27;;;14.00;;
5690;SDS011;2870;42.680;23.364;2023-08-24T02:47:02;20.93;;;14.70;;
5690;SDS011;2870;42.680;23.364;2023-08-24T02:49:29;25.27;;;16.53;;
5690;SDS011;2870;42.680;23.364;2023-08-24T02:51:55;21.07;;;14.53;;
5690;SDS011;2870;42.680;23.364;2023-08-24T02:54:22;21.70;;;14.73;;
5690;SDS011;2870;42.680;23.364;2023-08-24T02:56:50;20.20;;;13.60;;
5690;SDS011;2870;42.680;23.364;2023-08-24T02:59:17;19.87;;;14.93;;
5690;SDS011;2870;42.680;23.364;2023-08-24T03:01:44;22.50;;;14.80;;
5690;SDS011;2870;42.680;23.364;2023-08-24T03:04:10;20.90;;;14.80;;
5690;SDS011;2870;42.680;23.364;2023-08-24T03:06:37;19.67;;;13.70;;
5690;SDS011;2870;42.680;23.364;2023-08-24T03:09:04;22.13;;;15.50;;
5690;SDS011;2870;42.680;23.364;2023-08-24T03:11:31;18.67;;;14.27;;
5690;SDS011;2870;42.680;23.364;2023-08-24T03:13:59;19.23;;;14.30;;
5690;SDS011;2870;42.680;23.364;2023-08-24T03:16:26;24.10;;;15.43;;
5690;SDS011;2870;42.680;23.364;2023-08-24T03:18:53;22.40;;;15.30;;
5690;SDS011;2870;42.680;23.364;2023-08-24T03:21:19;23.10;;;15.23;;
5690;SDS011;2870;42.680;23.364;2023-08-24T03:23:46;19.20;;;14.80;;
5690;SDS011;2870;42.680;23.364;2023-08-24T03:26:13;21.70;;;15.30;;
5690;SDS011;2870;42.680;23.364;2023-08-24T03:28:40;28.17;;;14.53;;
5690;SDS011;2870;42.680;23.364;2023-08-24T03:31:09;21.20;;;15.50;;
5690;SDS011;2870;42.680;23.364;2023-08-24T03:33:35;26.93;;;15.40;;
5690;SDS011;2870;42.680;23.364;2023-08-24T03:36:02;22.57;;;16.53;;
5690;SDS011;2870;42.680;23.364;2023-08-24T03:38:29;25.77;;;16.07;;
5690;SDS011;2870;42.680;23.364;2023-08-24T03:40:59;27.43;;;16.00;;
5690;SDS011;2870;42.680;23.364;2023-08-24T03:43:28;20.67;;;15.53;;
5690;SDS011;2870;42.680;23.364;2023-08-24T03:45:55;22.17;;;15.77;;
5690;SDS011;2870;42.680;23.364;2023-08-24T03:48:23;21.67;;;14.83;;
5690;SDS011;2870;42.680;23.364;2023-08-24T03:50:49;21.10;;;15.87;;
5690;SDS011;2870;42.680;23.364;2023-08-24T03:53:19;24.27;;;15.93;;
5690;SDS011;2870;42.680;23.364;2023-08-24T03:55:47;32.90;;;17.90;;
5690;SDS011;2870;42.680;23.364;2023-08-24T03:58:14;24.77;;;17.07;;
5690;SDS011;2870;42.680;23.364;2023-08-24T04:00:41;28.03;;;17.40;;
5690;SDS011;2870;42.680;23.364;2023-08-24T04:03:08;31.27;;;18.70;;
5690;SDS011;2870;42.680;23.364;2023-08-24T04:05:37;23.90;;;16.80;;
5690;SDS011;2870;42.680;23.364;2023-08-24T04:08:04;27.23;;;19.43;;
5690;SDS011;2870;42.680;23.364;2023-08-24T04:10:31;29.80;;;19.03;;
5690;SDS011;2870;42.680;23.364;2023-08-24T04:12:57;29.07;;;20.77;;
5690;SDS011;2870;42.680;23.364;2023-08-24T04:15:24;27.77;;;18.50;;
5690;SDS011;2870;42.680;23.364;2023-08-24T04:17:51;26.80;;;18.77;;
5690;SDS011;2870;42.680;23.364;2023-08-24T04:20:18;36.30;;;20.07;;
5690;SDS011;2870;42.680;23.364;2023-08-24T04:22:46;27.97;;;19.60;;
5690;SDS011;2870;42.680;23.364;2023-08-24T04:25:13;28.13;;;19.33;;
5690;SDS011;2870;42.680;23.364;2023-08-24T04:27:39;28.97;;;19.43;;
5690;SDS011;2870;42.680;23.364;2023-08-24T04:30:07;23.73;;;18.30;;
5690;SDS011;2870;42.680;23.364;2023-08-24T04:32:37;30.50;;;18.30;;
5690;SDS011;2870;42.680;23.364;2023-08-24T04:35:04;33.00;;;19.13;;
5690;SDS011;2870;42.680;23.364;2023-08-24T04:37:31;28.87;;;17.77;;
5690;SDS011;2870;42.680;23.364;2023-08-24T04:39:59;27.37;;;18.60;;
5690;SDS011;2870;42.680;23.364;2023-08-24T04:42:26;31.03;;;20.07;;
5690;SDS011;2870;42.680;23.364;2023-08-24T04:44:53;32.57;;;19.90;;
5690;SDS011;2870;42.680;23.364;2023-08-24T04:47:19;28.30;;;18.70;;
5690;SDS011;2870;42.680;23.364;2023-08-24T04:49:46;27.20;;;18.77;;
5690;SDS011;2870;42.680;23.364;2023-08-24T04:52:13;29.23;;;20.10;;
5690;SDS011;2870;42.680;23.364;2023-08-24T04:54:40;31.53;;;20.10;;
5690;SDS011;2870;42.680;23.364;2023-08-24T04:57:08;38.50;;;18.57;;
5690;SDS011;2870;42.680;23.364;2023-08-24T04:59:35;28.43;;;18.70;;
5690;SDS011;2870;42.680;23.364;2023-08-24T05:02:02;26.50;;;18.33;;
5690;SDS011;2870;42.680;23.364;2023-08-24T05:04:28;35.30;;;20.00;;
5690;SDS011;2870;42.680;23.364;2023-08-24T05:06:55;36.20;;;20.37;;
5690;SDS011;2870;42.680;23.364;2023-08-24T05:09:22;34.40;;;18.40;;
5690;SDS011;2870;42.680;23.364;2023-08-24T05:11:49;28.77;;;18.67;;
5690;SDS011;2870;42.680;23.364;2023-08-24T05:14:17;34.93;;;19.57;;
5690;SDS011;2870;42.680;23.364;2023-08-24T05:16:43;29.47;;;19.17;;
5690;SDS011;2870;42.680;23.364;2023-08-24T05:19:10;37.30;;;19.40;;
5690;SDS011;2870;42.680;23.364;2023-08-24T05:21:37;34.63;;;18.33;;
5690;SDS011;2870;42.680;23.364;2023-08-24T05:24:04;30.37;;;20.60;;
5690;SDS011;2870;42.680;23.364;2023-08-24T05:26:30;31.67;;;22.60;;
5690;SDS011;2870;42.680;23.364;2023-08-24T05:28:57;32.10;;;20.53;;
5690;SDS011;2870;42.680;23.364;2023-08-24T05:31:25;37.70;;;20.33;;
5690;SDS011;2870;42.680;23.364;2023-08-24T05:33:52;36.33;;;20.30;;
5690;SDS011;2870;42.680;23.364;2023-08-24T05:36:19;32.13;;;19.23;;
5690;SDS011;2870;42.680;23.364;2023-08-24T05:38:46;26.67;;;19.10;;
5690;SDS011;2870;42.680;23.364;2023-08-24T05:41:13;26.57;;;19.57;;
5690;SDS011;2870;42.680;23.364;2023-08-24T05:43:40;40.40;;;19.80;;
5690;SDS011;2870;42.680;23.364;2023-08-24T05:46:07;33.30;;;20.30;;
5690;SDS011;2870;42.680;23.364;2023-08-24T05:48:35;31.87;;;20.20;;
5690;SDS011;2870;42.680;23.364;2023-08-24T05:51:02;53.47;;;22.10;;
5690;SDS011;2870;42.680;23.364;2023-08-24T05:53:31;37.80;;;20.80;;
5690;SDS011;2870;42.680;23.364;2023-08-24T05:55:58;38.53;;;19.83;;
5690;SDS011;2870;42.680;23.364;2023-08-24T05:58:25;32.80;;;20.43;;
5690;SDS011;2870;42.680;23.364;2023-08-24T06:00:58;34.53;;;21.50;;
5690;SDS011;2870;42.680;23.364;2023-08-24T06:03:25;42.70;;;21.43;;
5690;SDS011;2870;42.680;23.364;2023-08-24T06:05:53;36.20;;;22.20;;
5690;SDS011;2870;42.680;23.364;2023-08-24T06:08:20;35.23;;;20.10;;
5690;SDS011;2870;42.680;23.364;2023-08-24T06:10:48;31.70;;;20.93;;
5690;SDS011;2870;42.680;23.364;2023-08-24T06:13:14;29.90;;;19.97;;
5690;SDS011;2870;42.680;23.364;2023-08-24T06:15:41;27.93;;;19.23;;
5690;SDS011;2870;42.680;23.364;2023-08-24T06:18:08;30.37;;;20.50;;
5690;SDS011;2870;42.680;23.364;2023-08-24T06:20:35;41.30;;;20.87;;
5690;SDS011;2870;42.680;23.364;2023-08-24T06:23:03;30.57;;;22.50;;
5690;SDS011;2870;42.680;23.364;2023-08-24T06:25:30;35.43;;;21.47;;
5690;SDS011;2870;42.680;23.364;2023-08-24T06:27:57;33.00;;;21.03;;
5690;SDS011;2870;42.680;23.364;2023-08-24T06:30:24;33.90;;;19.67;;
5690;SDS011;2870;42.680;23.364;2023-08-24T06:32:51;34.23;;;22.47;;
5690;SDS011;2870;42.680;23.364;2023-08-24T06:35:18;28.17;;;20.17;;
5690;SDS011;2870;42.680;23.364;2023-08-24T06:37:45;29.50;;;19.37;;
5690;SDS011;2870;42.680;23.364;2023-08-24T06:40:13;29.70;;;19.60;;
5690;SDS011;2870;42.680;23.364;2023-08-24T06:42:39;28.73;;;20.33;;
5690;SDS011;2870;42.680;23.364;2023-08-24T06:45:07;35.83;;;19.93;;
5690;SDS011;2870;42.680;23.364;2023-08-24T06:47:35;28.80;;;20.67;;
5690;SDS011;2870;42.680;23.364;2023-08-24T06:50:02;39.90;;;18.77;;
5690;SDS011;2870;42.680;23.364;2023-08-24T06:52:29;28.63;;;19.20;;
5690;SDS011;2870;42.680;23.364;2023-08-24T06:54:56;28.70;;;19.07;;
5690;SDS011;2870;42.680;23.364;2023-08-24T06:57:24;31.30;;;19.10;;
5690;SDS011;2870;42.680;23.364;2023-08-24T06:59:51;31.00;;;18.80;;
5690;SDS011;2870;42.680;23.364;2023-08-24T07:02:18;36.13;;;20.17;;
5690;SDS011;2870;42.680;23.364;2023-08-24T07:04:44;37.07;;;20.17;;
5690;SDS011;2870;42.680;23.364;2023-08-24T07:07:11;32.03;;;19.60;;
5690;SDS011;2870;42.680;23.364;2023-08-24T07:09:38;32.33;;;19.00;;
5690;SDS011;2870;42.680;23.364;2023-08-24T07:12:05;34.27;;;18.90;;
5690;SDS011;2870;42.680;23.364;2023-08-24T07:14:36;33.57;;;20.30;;
5690;SDS011;2870;42.680;23.364;2023-08-24T07:17:03;28.33;;;20.00;;
5690;SDS011;2870;42.680;23.364;2023-08-24T07:19:30;26.33;;;19.40;;
5690;SDS011;2870;42.680;23.364;2023-08-24T07:21:57;37.07;;;20.60;;
5690;SDS011;2870;42.680;23.364;2023-08-24T07:24:25;26.70;;;19.70;;
5690;SDS011;2870;42.680;23.364;2023-08-24T07:26:53;30.43;;;18.40;;
5690;SDS011;2870;42.680;23.364;2023-08-24T07:29:21;35.33;;;20.03;;
5690;SDS011;2870;42.680;23.364;2023-08-24T07:31:49;30.13;;;19.93;;
5690;SDS011;2870;42.680;23.364;2023-08-24T07:34:15;32.93;;;19.17;;
5690;SDS011;2870;42.680;23.364;2023-08-24T07:36:42;29.47;;;18.43;;
5690;SDS011;2870;42.680;23.364;2023-08-24T07:39:10;23.63;;;17.30;;
5690;SDS011;2870;42.680;23.364;2023-08-24T07:41:37;27.43;;;18.77;;
5690;SDS011;2870;42.680;23.364;2023-08-24T07:44:03;21.27;;;16.30;;
5690;SDS011;2870;42.680;23.364;2023-08-24T07:46:31;29.97;;;17.33;;
5690;SDS011;2870;42.680;23.364;2023-08-24T07:48:59;28.73;;;15.80;;
5690;SDS011;2870;42.680;23.364;2023-08-24T07:51:26;25.53;;;16.60;;
5690;SDS011;2870;42.680;23.364;2023-08-24T07:53:53;24.67;;;17.80;;
5690;SDS011;2870;42.680;23.364;2023-08-24T07:56:20;23.40;;;17.93;;
5690;SDS011;2870;42.680;23.364;2023-08-24T07:58:48;29.53;;;17.63;;
5690;SDS011;2870;42.680;23.364;2023-08-24T08:01:14;24.30;;;16.30;;
5690;SDS011;2870;42.680;23.364;2023-08-24T08:03:41;27.60;;;16.20;;
5690;SDS011;2870;42.680;23.364;2023-08-24T08:06:09;23.03;;;15.37;;
5690;SDS011;2870;42.680;23.364;2023-08-24T08:08:37;26.97;;;17.20;;
5690;SDS011;2870;42.680;23.364;2023-08-24T08:11:04;23.93;;;16.07;;
5690;SDS011;2870;42.680;23.364;2023-08-24T08:13:30;21.53;;;15.00;;
5690;SDS011;2870;42.680;23.364;2023-08-24T08:16:00;20.87;;;14.83;;
5690;SDS011;2870;42.680;23.364;2023-08-24T08:18:28;22.43;;;15.10;;
5690;SDS011;2870;42.680;23.364;2023-08-24T08:20:55;25.83;;;14.17;;
5690;SDS011;2870;42.680;23.364;2023-08-24T08:23:23;20.47;;;13.90;;
5690;SDS011;2870;42.680;23.364;2023-08-24T08:25:50;23.50;;;13.13;;
5690;SDS011;2870;42.680;23.364;2023-08-24T08:28:17;25.07;;;15.23;;
5690;SDS011;2870;42.680;23.364;2023-08-24T08:30:44;19.70;;;13.77;;
5690;SDS011;2870;42.680;23.364;2023-08-24T08:33:11;21.93;;;15.50;;
5690;SDS011;2870;42.680;23.364;2023-08-24T08:35:38;18.07;;;13.00;;
5690;SDS011;2870;42.680;23.364;2023-08-24T08:38:06;24.00;;;13.77;;
5690;SDS011;2870;42.680;23.364;2023-08-24T08:40:36;23.73;;;13.40;;
5690;SDS011;2870;42.680;23.364;2023-08-24T08:43:03;19.67;;;12.20;;
5690;SDS011;2870;42.680;23.364;2023-08-24T08:45:31;21.63;;;13.20;;
5690;SDS011;2870;42.680;23.364;2023-08-24T08:47:59;25.03;;;13.90;;
5690;SDS011;2870;42.680;23.364;2023-08-24T08:50:26;22.23;;;12.73;;
5690;SDS011;2870;42.680;23.364;2023-08-24T08:52:53;24.40;;;13.67;;
5690;SDS011;2870;42.680;23.364;2023-08-24T08:55:20;20.00;;;14.17;;
5690;SDS011;2870;42.680;23.364;2023-08-24T08:57:48;25.40;;;14.10;;
5690;SDS011;2870;42.680;23.364;2023-08-24T09:00:17;20.37;;;13.70;;
5690;SDS011;2870;42.680;23.364;2023-08-24T09:02:45;15.37;;;12.67;;
5690;SDS011;2870;42.680;23.364;2023-08-24T09:05:14;20.93;;;13.03;;
5690;SDS011;2870;42.680;23.364;2023-08-24T09:07:41;16.37;;;12.10;;
5690;SDS011;2870;42.680;23.364;2023-08-24T09:10:08;19.13;;;13.20;;
5690;SDS011;2870;42.680;23.364;2023-08-24T09:12:35;22.93;;;13.10;;
5690;SDS011;2870;42.680;23.364;2023-08-24T09:15:04;16.70;;;12.03;;
5690;SDS011;2870;42.680;23.364;2023-08-24T09:17:32;15.93;;;12.20;;
5690;SDS011;2870;42.680;23.364;2023-08-24T09:20:00;16.20;;;12.17;;
5690;SDS011;2870;42.680;23.364;2023-08-24T09:22:34;18.03;;;12.60;;
5690;SDS011;2870;42.680;23.364;2023-08-24T09:25:01;23.17;;;12.07;;
5690;SDS011;2870;42.680;23.364;2023-08-24T09:27:29;16.60;;;12.20;;
5690;SDS011;2870;42.680;23.364;2023-08-24T09:29:57;17.73;;;12.13;;
5690;SDS011;2870;42.680;23.364;2023-08-24T09:32:27;15.43;;;11.67;;
5690;SDS011;2870;42.680;23.364;2023-08-24T09:34:54;16.40;;;13.17;;
5690;SDS011;2870;42.680;23.364;2023-08-24T09:37:21;21.93;;;11.73;;
5690;SDS011;2870;42.680;23.364;2023-08-24T09:39:48;15.43;;;12.03;;
5690;SDS011;2870;42.680;23.364;2023-08-24T09:42:15;23.97;;;11.57;;
5690;SDS011;2870;42.680;23.364;2023-08-24T09:44:51;63.43;;;18.17;;
5690;SDS011;2870;42.680;23.364;2023-08-24T09:47:18;20.07;;;11.40;;
5690;SDS011;2870;42.680;23.364;2023-08-24T09:49:46;13.37;;;11.10;;
5690;SDS011;2870;42.680;23.364;2023-08-24T09:52:14;17.33;;;11.67;;
5690;SDS011;2870;42.680;23.364;2023-08-24T09:54:41;22.53;;;12.27;;
5690;SDS011;2870;42.680;23.364;2023-08-24T09:57:10;17.03;;;11.10;;
5690;SDS011;2870;42.680;23.364;2023-08-24T09:59:39;15.10;;;10.40;;
5690;SDS011;2870;42.680;23.364;2023-08-24T10:02:15;18.50;;;10.67;;
5690;SDS011;2870;42.680;23.364;2023-08-24T10:04:47;15.03;;;10.70;;
5690;SDS011;2870;42.680;23.364;2023-08-24T10:07:19;13.53;;;11.03;;
5690;SDS011;2870;42.680;23.364;2023-08-24T10:09:48;11.50;;;10.00;;
5690;SDS011;2870;42.680;23.364;2023-08-24T10:12:24;17.20;;;11.70;;
5690;SDS011;2870;42.680;23.364;2023-08-24T10:14:56;13.70;;;10.20;;
5690;SDS011;2870;42.680;23.364;2023-08-24T10:17:27;18.80;;;11.17;;
5690;SDS011;2870;42.680;23.364;2023-08-24T10:19:57;15.73;;;9.57;;
5690;SDS011;2870;42.680;23.364;2023-08-24T10:22:26;14.47;;;10.20;;
5690;SDS011;2870;42.680;23.364;2023-08-24T10:24:54;12.13;;;8.73;;
5690;SDS011;2870;42.680;23.364;2023-08-24T10:27:21;10.30;;;8.60;;
5690;SDS011;2870;42.680;23.364;2023-08-24T10:29:49;13.93;;;8.97;;
5690;SDS011;2870;42.680;23.364;2023-08-24T10:32:16;16.47;;;9.13;;
5690;SDS011;2870;42.680;23.364;2023-08-24T10:34:43;19.97;;;9.90;;
5690;SDS011;2870;42.680;23.364;2023-08-24T10:37:12;16.50;;;10.60;;
5690;SDS011;2870;42.680;23.364;2023-08-24T10:39:43;13.13;;;8.13;;
5690;SDS011;2870;42.680;23.364;2023-08-24T10:42:10;16.17;;;9.47;;
5690;SDS011;2870;42.680;23.364;2023-08-24T10:44:38;37.37;;;12.87;;
5690;SDS011;2870;42.680;23.364;2023-08-24T10:47:06;16.70;;;10.30;;
5690;SDS011;2870;42.680;23.364;2023-08-24T10:49:40;17.83;;;10.93;;
5690;SDS011;2870;42.680;23.364;2023-08-24T10:52:18;15.57;;;10.83;;
5690;SDS011;2870;42.680;23.364;2023-08-24T10:54:46;17.00;;;10.40;;
5690;SDS011;2870;42.680;23.364;2023-08-24T10:57:18;16.23;;;11.17;;
5690;SDS011;2870;42.680;23.364;2023-08-24T10:59:56;31.13;;;13.70;;
5690;SDS011;2870;42.680;23.364;2023-08-24T11:02:24;24.20;;;11.47;;
5690;SDS011;2870;42.680;23.364;2023-08-24T11:05:04;20.77;;;11.27;;
5690;SDS011;2870;42.680;23.364;2023-08-24T11:07:52;15.10;;;10.30;;
5690;SDS011;2870;42.680;23.364;2023-08-24T11:10:20;15.90;;;10.73;;
5690;SDS011;2870;42.680;23.364;2023-08-24T11:13:07;31.93;;;12.57;;
5690;SDS011;2870;42.680;23.364;2023-08-24T11:15:37;13.30;;;10.80;;
5690;SDS011;2870;42.680;23.364;2023-08-24T11:18:11;14.20;;;11.13;;
5690;SDS011;2870;42.680;23.364;2023-08-24T11:20:46;13.23;;;11.50;;
5690;SDS011;2870;42.680;23.364;2023-08-24T11:23:16;15.30;;;12.13;;
5690;SDS011;2870;42.680;23.364;2023-08-24T11:25:43;19.00;;;12.20;;
5690;SDS011;2870;42.680;23.364;2023-08-24T11:28:10;23.80;;;11.47;;
5690;SDS011;2870;42.680;23.364;2023-08-24T11:30:37;19.80;;;12.03;;
5690;SDS011;2870;42.680;23.364;2023-08-24T11:33:04;15.93;;;12.10;;
5690;SDS011;2870;42.680;23.364;2023-08-24T11:35:34;21.93;;;13.20;;
5690;SDS011;2870;42.680;23.364;2023-08-24T11:38:02;23.33;;;13.70;;
5690;SDS011;2870;42.680;23.364;2023-08-24T11:40:31;18.40;;;12.77;;
5690;SDS011;2870;42.680;23.364;2023-08-24T11:42:58;22.13;;;13.17;;
5690;SDS011;2870;42.680;23.364;2023-08-24T11:45:29;23.10;;;12.90;;
5690;SDS011;2870;42.680;23.364;2023-08-24T11:47:57;20.30;;;13.30;;
5690;SDS011;2870;42.680;23.364;2023-08-24T11:50:26;16.60;;;12.10;;
5690;SDS011;2870;42.680;23.364;2023-08-24T11:52:53;15.90;;;12.17;;
5690;SDS011;2870;42.680;23.364;2023-08-24T11:55:20;27.83;;;14.23;;
5690;SDS011;2870;42.680;23.364;2023-08-24T11:57:49;24.00;;;12.50;;
5690;SDS011;2870;42.680;23.364;2023-08-24T12:00:15;37.57;;;13.97;;
5690;SDS011;2870;42.680;23.364;2023-08-24T12:02:44;26.77;;;12.63;;
5690;SDS011;2870;42.680;23.364;2023-08-24T12:05:21;25.50;;;13.67;;
5690;SDS011;2870;42.680;23.364;2023-08-24T12:07:48;20.63;;;12.83;;
5690;SDS011;2870;42.680;23.364;2023-08-24T12:10:15;21.73;;;12.90;;
5690;SDS011;2870;42.680;23.364;2023-08-24T12:12:42;17.50;;;11.80;;
5690;SDS011;2870;42.680;23.364;2023-08-24T12:15:16;23.67;;;13.53;;
5690;SDS011;2870;42.680;23.364;2023-08-24T12:17:45;17.30;;;11.60;;
5690;SDS011;2870;42.680;23.364;2023-08-24T12:20:19;18.83;;;11.70;;
5690;SDS011;2870;42.680;23.364;2023-08-24T12:22:53;17.33;;;12.10;;
5690;SDS011;2870;42.680;23.364;2023-08-24T12:25:24;21.60;;;11.30;;
5690;SDS011;2870;42.680;23.364;2023-08-24T12:27:51;17.20;;;12.40;;
5690;SDS011;2870;42.680;23.364;2023-08-24T12:30:20;17.10;;;11.83;;
5690;SDS011;2870;42.680;23.364;2023-08-24T12:32:47;16.80;;;11.03;;
5690;SDS011;2870;42.680;23.364;2023-08-24T12:35:15;19.60;;;11.87;;
5690;SDS011;2870;42.680;23.364;2023-08-24T12:37:43;21.77;;;12.23;;
5690;SDS011;2870;42.680;23.364;2023-08-24T12:40:09;18.07;;;12.40;;
5690;SDS011;2870;42.680;23.364;2023-08-24T12:42:37;23.17;;;12.87;;
5690;SDS011;2870;42.680;23.364;2023-08-24T12:45:04;31.57;;;13.70;;
5690;SDS011;2870;42.680;23.364;2023-08-24T12:47:33;19.33;;;12.10;;
5690;SDS011;2870;42.680;23.364;2023-08-24T12:50:03;14.70;;;11.10;;
5690;SDS011;2870;42.680;23.364;2023-08-24T12:52:31;19.37;;;11.60;;
5690;SDS011;2870;42.680;23.364;2023-08-24T12:54:59;19.63;;;12.03;;
5690;SDS011;2870;42.680;23.364;2023-08-24T12:57:25;28.23;;;12.10;;
5690;SDS011;2870;42.680;23.364;2023-08-24T12:59:52;18.17;;;12.23;;
5690;SDS011;2870;42.680;23.364;2023-08-24T13:02:19;26.00;;;10.60;;
5690;SDS011;2870;42.680;23.364;2023-08-24T13:04:48;24.70;;;11.73;;
5690;SDS011;2870;42.680;23.364;2023-08-24T13:07:15;16.27;;;10.33;;
5690;SDS011;2870;42.680;23.364;2023-08-24T13:09:41;23.60;;;10.80;;
5690;SDS011;2870;42.680;23.364;2023-08-24T13:12:08;19.20;;;11.00;;
5690;SDS011;2870;42.680;23.364;2023-08-24T13:14:35;19.10;;;11.00;;
5690;SDS011;2870;42.680;23.364;2023-08-24T13:17:02;24.37;;;12.40;;
5690;SDS011;2870;42.680;23.364;2023-08-24T13:19:29;22.33;;;13.00;;
5690;SDS011;2870;42.680;23.364;2023-08-24T13:21:57;25.10;;;14.87;;
5690;SDS011;2870;42.680;23.364;2023-08-24T13:24:23;23.43;;;12.97;;
5690;SDS011;2870;42.680;23.364;2023-08-24T13:26:50;20.13;;;14.00;;
5690;SDS011;2870;42.680;23.364;2023-08-24T13:29:17;25.73;;;14.23;;
5690;SDS011;2870;42.680;23.364;2023-08-24T13:31:44;30.60;;;12.83;;
5690;SDS011;2870;42.680;23.364;2023-08-24T13:34:10;29.03;;;12.67;;
5690;SDS011;2870;42.680;23.364;2023-08-24T13:36:37;18.20;;;11.33;;
5690;SDS011;2870;42.680;23.364;2023-08-24T13:39:05;24.73;;;11.80;;
5690;SDS011;2870;42.680;23.364;2023-08-24T13:41:32;21.77;;;13.10;;
5690;SDS011;2870;42.680;23.364;2023-08-24T13:43:59;21.13;;;12.23;;
5690;SDS011;2870;42.680;23.364;2023-08-24T13:46:25;30.97;;;12.67;;
5690;SDS011;2870;42.680;23.364;2023-08-24T13:48:52;19.00;;;12.30;;
5690;SDS011;2870;42.680;23.364;2023-08-24T13:51:19;18.27;;;12.13;;
5690;SDS011;2870;42.680;23.364;2023-08-24T13:53:46;31.13;;;17.23;;
5690;SDS011;2870;42.680;23.364;2023-08-24T13:56:15;24.40;;;12.20;;
5690;SDS011;2870;42.680;23.364;2023-08-24T13:58:41;25.57;;;12.77;;
5690;SDS011;2870;42.680;23.364;2023-08-24T14:01:09;24.40;;;12.27;;
5690;SDS011;2870;42.680;23.364;2023-08-24T14:03:36;35.17;;;12.50;;
5690;SDS011;2870;42.680;23.364;2023-08-24T14:06:03;19.53;;;13.10;;
5690;SDS011;2870;42.680;23.364;2023-08-24T14:08:30;16.53;;;12.67;;
5690;SDS011;2870;42.680;23.364;2023-08-24T14:10:56;15.77;;;12.27;;
5690;SDS011;2870;42.680;23.364;2023-08-24T14:13:25;19.30;;;12.17;;
5690;SDS011;2870;42.680;23.364;2023-08-24T14:15:51;19.83;;;15.70;;
5690;SDS011;2870;42.680;23.364;2023-08-24T14:18:18;31.93;;;24.20;;
5690;SDS011;2870;42.680;23.364;2023-08-24T14:20:45;26.20;;;13.70;;
5690;SDS011;2870;42.680;23.364;2023-08-24T14:23:12;28.83;;;12.80;;
5690;SDS011;2870;42.680;23.364;2023-08-24T14:25:38;16.40;;;13.17;;
5690;SDS011;2870;42.680;23.364;2023-08-24T14:28:05;26.30;;;12.47;;
5690;SDS011;2870;42.680;23.364;2023-08-24T14:30:33;23.57;;;16.80;;
5690;SDS011;2870;42.680;23.364;2023-08-24T14:33:00;16.40;;;12.40;;
5690;SDS011;2870;42.680;23.364;2023-08-24T14:35:27;18.40;;;11.67;;
5690;SDS011;2870;42.680;23.364;2023-08-24T14:37:53;23.77;;;12.70;;
5690;SDS011;2870;42.680;23.364;2023-08-24T14:40:20;22.20;;;13.17;;
5690;SDS011;2870;42.680;23.364;2023-08-24T14:42:47;31.20;;;12.73;;
5690;SDS011;2870;42.680;23.364;2023-08-24T14:45:14;24.30;;;12.10;;